createdAt,value
2022-12-25T00:08:18.308Z,8.57
2022-12-25T00:13:20.189Z,10.63
2022-12-25T00:18:24.064Z,16.00
2022-12-25T00:23:26.488Z,7.90
2022-12-25T00:28:32.875Z,12.27
2022-12-25T00:33:39.922Z,8.63
2022-12-25T00:56:42.252Z,12.67
2022-12-25T01:01:59.736Z,12.23
2022-12-25T01:07:50.237Z,17.57
2022-12-25T01:18:51.369Z,12.47
2022-12-25T01:23:54.055Z,15.00
2022-12-25T01:28:57.215Z,16.17
2022-12-25T01:33:58.981Z,13.90
2022-12-25T01:39:00.896Z,12.90
2022-12-25T01:44:07.233Z,18.27
2022-12-25T01:49:12.728Z,16.13
2022-12-25T01:54:18.001Z,18.73
2022-12-25T01:59:24.313Z,11.13
2022-12-25T02:04:30.172Z,15.10
2022-12-25T02:09:32.587Z,13.77
2022-12-25T02:14:37.510Z,11.97
2022-12-25T02:20:12.062Z,12.50
2022-12-25T02:25:33.154Z,14.67
2022-12-25T02:31:05.047Z,15.93
2022-12-25T02:36:16.200Z,14.13
2022-12-25T02:41:27.885Z,12.63
2022-12-25T02:46:33.634Z,16.90
2022-12-25T02:51:40.328Z,21.20
2022-12-25T02:56:46.903Z,14.77
2022-12-25T03:01:51.147Z,14.23
2022-12-25T03:07:02.667Z,19.20
2022-12-25T03:12:13.507Z,15.10
2022-12-25T03:17:17.140Z,21.33
2022-12-25T03:22:24.952Z,17.83
2022-12-25T03:27:29.741Z,16.77
2022-12-25T03:32:40.223Z,20.17
2022-12-25T03:37:50.679Z,20.67
2022-12-25T03:42:58.950Z,17.43
2022-12-25T03:48:05.308Z,19.27
2022-12-25T03:53:12.711Z,16.70
2022-12-25T03:58:19.219Z,17.20
2022-12-25T04:03:22.593Z,16.63
2022-12-25T04:08:24.464Z,19.27
2022-12-25T04:13:26.317Z,16.80
2022-12-25T04:18:29.585Z,17.23
2022-12-25T04:28:51.321Z,15.63
2022-12-25T04:33:58.829Z,16.77
2022-12-25T04:39:00.498Z,17.27
2022-12-25T04:44:02.375Z,11.80
2022-12-25T04:49:05.785Z,14.10
2022-12-25T04:54:07.493Z,15.37
2022-12-25T04:59:09.330Z,13.97
2022-12-25T05:04:12.737Z,10.53
2022-12-25T05:09:14.388Z,17.53
2022-12-25T05:14:16.234Z,14.20
2022-12-25T05:19:19.532Z,14.37
2022-12-25T05:24:26.017Z,16.13
2022-12-25T05:29:27.981Z,13.10
2022-12-25T05:34:31.410Z,14.33
2022-12-25T05:45:57.184Z,10.00
2022-12-25T05:51:34.547Z,14.00
2022-12-25T05:56:55.213Z,13.13
2022-12-25T06:02:29.563Z,16.93
2022-12-25T06:07:55.793Z,14.30
2022-12-25T06:13:28.656Z,13.80
2022-12-25T06:24:21.495Z,11.77
2022-12-25T07:04:37.942Z,9.73
2022-12-25T07:10:23.739Z,9.40
2022-12-25T07:22:09.137Z,21.30
2022-12-25T07:45:17.569Z,8.23
2022-12-25T07:50:44.695Z,13.67
2022-12-25T07:55:47.776Z,12.87
2022-12-25T08:00:49.449Z,12.13
2022-12-25T08:05:51.075Z,8.90
2022-12-25T08:10:54.361Z,11.20
2022-12-25T08:15:57.226Z,11.53
2022-12-25T08:21:03.712Z,13.27
2022-12-25T08:26:08.520Z,9.27
2022-12-25T08:31:14.272Z,9.10
2022-12-25T08:36:17.180Z,12.63
2022-12-25T08:41:23.170Z,10.10
2022-12-25T08:46:25.469Z,10.17
2022-12-25T08:51:27.304Z,12.20
2022-12-25T08:56:30.778Z,8.93
2022-12-25T09:01:32.408Z,10.33
2022-12-25T09:06:34.261Z,9.90
2022-12-25T09:11:37.315Z,10.03
2022-12-25T09:16:39.074Z,7.43
2022-12-25T09:21:41.080Z,5.07
2022-12-25T09:26:44.692Z,6.13
2022-12-25T09:31:46.509Z,3.60
2022-12-25T09:36:48.480Z,6.27
2022-12-25T09:41:56.277Z,5.40
2022-12-25T09:47:01.461Z,6.97
2022-12-25T09:52:08.767Z,7.70
2022-12-25T09:57:14.913Z,5.90
2022-12-25T10:02:52.605Z,4.73
2022-12-25T10:08:02.464Z,5.07
2022-12-25T10:13:16.681Z,6.73
2022-12-25T10:18:47.266Z,8.40
2022-12-25T10:23:55.519Z,5.53
2022-12-25T10:29:04.341Z,7.10
2022-12-25T10:34:07.095Z,4.53
2022-12-25T10:39:12.547Z,3.30
2022-12-25T10:44:17.783Z,4.07
2022-12-25T10:49:22.152Z,4.10
2022-12-25T10:54:26.366Z,5.40
2022-12-25T10:59:34.436Z,4.13
2022-12-25T11:04:36.534Z,3.93
2022-12-25T11:09:38.194Z,4.33
2022-12-25T11:14:53.586Z,3.90
2022-12-25T11:19:57.221Z,3.77
2022-12-25T11:25:11.866Z,5.00
2022-12-25T11:30:19.380Z,4.73
2022-12-25T11:35:24.269Z,4.43
2022-12-25T11:40:28.934Z,3.37
2022-12-25T11:45:37.211Z,4.07
2022-12-25T11:50:43.466Z,2.90
2022-12-25T11:55:49.356Z,2.10
2022-12-25T12:00:55.187Z,2.57
2022-12-25T12:05:59.805Z,3.10
2022-12-25T12:11:12.639Z,2.50
2022-12-25T12:16:15.865Z,2.00
2022-12-25T12:21:22.425Z,3.50
2022-12-25T12:26:27.536Z,2.27
2022-12-25T12:31:39.271Z,2.87
2022-12-25T12:36:41.252Z,4.60
2022-12-25T12:41:48.445Z,3.00
2022-12-25T12:46:53.537Z,3.73
2022-12-25T12:52:06.990Z,2.60
2022-12-25T12:57:23.177Z,5.53
2022-12-25T13:02:58.241Z,4.60
2022-12-25T13:08:07.877Z,6.37
2022-12-25T13:13:16.962Z,4.90
2022-12-25T13:18:20.938Z,4.47
2022-12-25T13:23:25.709Z,4.17
2022-12-25T13:28:28.652Z,4.10
2022-12-25T13:33:32.099Z,12.77
2022-12-25T13:38:34.453Z,7.03
2022-12-25T13:43:36.517Z,5.60
2022-12-25T13:48:39.852Z,5.23
2022-12-25T13:53:42.013Z,4.50
2022-12-25T13:58:47.499Z,5.40
2022-12-25T14:03:50.739Z,5.37
2022-12-25T14:08:54.603Z,4.60
2022-12-25T14:14:00.117Z,5.00
2022-12-25T14:19:03.547Z,4.80
2022-12-25T14:24:13.564Z,5.30
2022-12-25T14:29:19.140Z,6.40
2022-12-25T14:34:27.918Z,7.03
2022-12-25T14:39:35.462Z,5.53
2022-12-25T14:44:38.935Z,5.97
2022-12-25T14:49:42.991Z,8.03
2022-12-25T14:54:47.245Z,5.33
2022-12-25T14:59:56.573Z,9.60
2022-12-25T15:04:59.685Z,4.70
2022-12-25T15:15:23.590Z,6.23
2022-12-25T15:20:30.831Z,4.57
2022-12-25T15:25:32.482Z,6.13
2022-12-25T15:30:36.525Z,4.90
2022-12-25T15:35:39.511Z,5.90
2022-12-25T15:40:42.491Z,6.80
2022-12-25T15:45:44.304Z,6.80
2022-12-25T15:50:47.492Z,5.07
2022-12-25T15:55:49.495Z,4.80
2022-12-25T16:00:51.186Z,4.87
2022-12-25T16:05:54.427Z,5.03
2022-12-25T16:10:56.274Z,5.43
2022-12-25T16:15:57.954Z,4.47
2022-12-25T16:21:01.329Z,4.17
2022-12-25T16:26:02.983Z,5.70
2022-12-25T16:31:04.887Z,4.40
2022-12-25T16:36:08.852Z,4.40
2022-12-25T16:41:10.488Z,6.33
2022-12-25T16:46:13.905Z,5.30
2022-12-25T16:51:19.178Z,5.97
2022-12-25T16:56:21.227Z,3.83
2022-12-25T17:01:24.277Z,4.47
2022-12-25T17:06:28.278Z,4.33
2022-12-25T17:11:30.465Z,7.87
2022-12-25T17:16:34.267Z,4.70
2022-12-25T17:21:37.571Z,4.43
2022-12-25T17:26:39.651Z,11.00
2022-12-25T17:31:41.492Z,3.93
2022-12-25T17:36:44.588Z,3.80
2022-12-25T17:41:46.300Z,6.00
2022-12-25T17:46:48.820Z,5.23
2022-12-25T17:51:53.956Z,5.33
2022-12-25T17:56:55.684Z,3.77
2022-12-25T18:01:57.627Z,3.73
2022-12-25T18:07:00.939Z,5.03
2022-12-25T18:12:02.563Z,3.43
2022-12-25T18:17:04.172Z,4.27
2022-12-25T18:22:08.733Z,3.30
2022-12-25T18:27:19.274Z,3.97
2022-12-25T18:32:27.763Z,3.87
2022-12-25T18:37:39.423Z,3.70
2022-12-25T18:42:42.021Z,3.80
2022-12-25T18:47:43.815Z,4.87
2022-12-25T18:52:51.663Z,3.47
2022-12-25T18:57:54.097Z,3.90
2022-12-25T19:02:56.648Z,4.17
2022-12-25T19:08:00.391Z,4.30
2022-12-25T19:13:02.439Z,4.33
2022-12-25T19:18:04.281Z,6.30
2022-12-25T19:23:07.826Z,3.97
2022-12-25T19:28:09.694Z,4.80
2022-12-25T19:33:17.472Z,3.77
2022-12-25T19:38:21.194Z,5.23
2022-12-25T19:43:23.004Z,3.63
2022-12-25T19:48:25.173Z,3.70
2022-12-25T19:53:29.809Z,4.87
2022-12-25T19:58:31.494Z,4.40
2022-12-25T20:03:33.612Z,5.10
2022-12-25T20:08:36.900Z,4.97
2022-12-25T20:13:38.521Z,4.70
2022-12-25T20:18:40.447Z,3.80
2022-12-25T20:23:44.786Z,4.10
2022-12-25T20:28:46.515Z,5.97
2022-12-25T20:33:48.313Z,5.13
2022-12-25T20:38:51.421Z,6.03
2022-12-25T20:43:53.271Z,3.60
2022-12-25T20:48:55.340Z,5.13
2022-12-25T20:53:58.436Z,4.37
2022-12-25T20:59:01.005Z,3.73
2022-12-25T21:04:02.835Z,4.13
2022-12-25T21:09:06.309Z,4.23
2022-12-25T21:14:08.229Z,4.63
2022-12-25T21:19:09.979Z,4.90
2022-12-25T21:24:13.052Z,5.27
2022-12-25T21:29:14.884Z,4.70
2022-12-25T21:34:16.607Z,5.07
2022-12-25T21:39:19.635Z,5.67
2022-12-25T21:44:21.254Z,5.93
2022-12-25T21:49:23.117Z,5.13
2022-12-25T21:54:26.549Z,5.60
2022-12-25T21:59:28.311Z,4.97
2022-12-25T22:04:29.929Z,4.97
2022-12-25T22:09:33.230Z,5.43
2022-12-25T22:14:52.804Z,4.20
2022-12-25T22:19:55.615Z,4.47
2022-12-25T22:25:00.582Z,4.50
2022-12-25T22:30:02.645Z,4.40
2022-12-25T22:35:05.046Z,4.23
2022-12-25T22:40:10.990Z,4.50
2022-12-25T22:45:13.002Z,4.40
2022-12-25T22:50:16.284Z,5.27
2022-12-25T22:55:19.490Z,4.50
2022-12-25T23:00:21.530Z,3.50
2022-12-25T23:05:23.142Z,3.93
2022-12-25T23:10:28.249Z,3.57
2022-12-25T23:15:29.879Z,3.43
2022-12-25T23:20:32.681Z,3.23
2022-12-25T23:25:35.766Z,3.30
2022-12-25T23:30:37.681Z,3.20
2022-12-25T23:35:39.623Z,3.60
2022-12-25T23:40:42.765Z,3.53
2022-12-25T23:45:44.570Z,2.97
2022-12-25T23:50:46.429Z,4.03
2022-12-25T23:55:55.397Z,2.50
